createdAt,value
2022-08-31T00:01:30.892Z,24.32
2022-08-31T00:06:34.047Z,24.23
2022-08-31T00:11:37.945Z,24.20
2022-08-31T00:16:43.130Z,24.09
2022-08-31T00:21:46.165Z,24.03
2022-08-31T00:26:48.918Z,24.00
2022-08-31T00:31:52.985Z,23.94
2022-08-31T00:36:55.721Z,23.91
2022-08-31T00:41:58.425Z,23.81
2022-08-31T00:47:03.050Z,23.80
2022-08-31T00:52:08.371Z,23.84
2022-08-31T00:57:11.249Z,23.77
2022-08-31T01:02:15.824Z,23.69
2022-08-31T01:07:18.524Z,23.67
2022-08-31T01:12:21.257Z,23.74
2022-08-31T01:17:25.418Z,23.83
2022-08-31T01:22:30.851Z,23.81
2022-08-31T01:27:35.975Z,23.77
2022-08-31T01:32:38.697Z,23.72
2022-08-31T01:37:41.397Z,23.60
2022-08-31T01:42:45.765Z,23.59
2022-08-31T01:47:48.725Z,23.61
2022-08-31T01:52:51.385Z,23.53
2022-08-31T01:57:55.426Z,23.53
2022-08-31T02:03:16.738Z,23.46
2022-08-31T02:08:19.764Z,23.50
2022-08-31T02:13:23.915Z,23.44
2022-08-31T02:18:26.644Z,23.60
2022-08-31T02:23:29.323Z,23.54
2022-08-31T02:28:33.489Z,23.50
2022-08-31T02:33:36.640Z,23.51
2022-08-31T02:38:39.743Z,23.54
2022-08-31T02:43:43.936Z,23.58
2022-08-31T02:48:47.276Z,23.63
2022-08-31T02:53:53.892Z,23.67
2022-08-31T02:58:59.103Z,23.60
2022-08-31T03:04:02.893Z,23.59
2022-08-31T03:09:05.815Z,23.60
2022-08-31T03:14:09.817Z,23.57
2022-08-31T03:19:12.754Z,23.60
2022-08-31T03:24:17.935Z,23.59
2022-08-31T03:29:22.112Z,23.62
2022-08-31T03:34:30.599Z,23.64
2022-08-31T03:39:33.619Z,23.75
2022-08-31T03:44:37.684Z,23.80
2022-08-31T03:49:43.866Z,23.81
2022-08-31T03:54:55.402Z,23.83
2022-08-31T04:00:00.494Z,23.84
2022-08-31T04:05:18.750Z,23.85
2022-08-31T04:10:39.145Z,23.85
2022-08-31T04:16:07.782Z,23.84
2022-08-31T04:21:31.486Z,23.83
2022-08-31T04:26:36.325Z,23.84
2022-08-31T04:31:42.718Z,23.83
2022-08-31T04:36:45.862Z,23.82
2022-08-31T04:41:49.475Z,23.83
2022-08-31T04:46:55.117Z,23.83
2022-08-31T04:51:58.285Z,23.83
2022-08-31T04:57:03.426Z,23.81
2022-08-31T05:02:10.094Z,23.81
2022-08-31T05:07:20.080Z,23.81
2022-08-31T05:12:23.841Z,23.82
2022-08-31T05:17:28.101Z,23.81
2022-08-31T05:22:30.844Z,23.81
2022-08-31T05:27:35.022Z,23.82
2022-08-31T05:32:39.192Z,23.82
2022-08-31T05:37:43.437Z,23.82
2022-08-31T05:42:46.411Z,23.83
2022-08-31T05:47:50.962Z,23.85
2022-08-31T05:52:53.928Z,23.85
2022-08-31T05:57:56.755Z,23.83
2022-08-31T06:03:00.939Z,23.85
2022-08-31T06:08:04.280Z,23.86
2022-08-31T06:13:08.247Z,23.84
2022-08-31T06:18:12.375Z,23.88
2022-08-31T06:23:15.982Z,23.86
2022-08-31T06:28:26.938Z,23.89
2022-08-31T06:33:32.471Z,23.94
2022-08-31T06:38:49.853Z,23.97
2022-08-31T06:44:20.865Z,24.00
2022-08-31T06:49:43.478Z,24.03
2022-08-31T06:54:46.295Z,24.06
2022-08-31T07:00:08.779Z,24.09
2022-08-31T07:05:24.781Z,24.09
2022-08-31T07:10:29.080Z,24.12
2022-08-31T07:15:31.963Z,24.13
2022-08-31T07:20:36.469Z,24.14
2022-08-31T07:25:40.231Z,24.15
2022-08-31T07:30:44.744Z,24.18
2022-08-31T07:35:52.262Z,24.20
2022-08-31T07:41:19.671Z,24.22
2022-08-31T07:46:22.949Z,24.25
2022-08-31T07:51:28.666Z,24.31
2022-08-31T07:56:51.088Z,24.34
2022-08-31T08:01:56.676Z,24.37
2022-08-31T08:07:05.931Z,24.41
2022-08-31T08:12:36.465Z,24.39
2022-08-31T08:17:58.817Z,24.42
2022-08-31T08:23:14.122Z,24.43
2022-08-31T08:28:41.044Z,24.45
2022-08-31T08:33:46.769Z,24.44
2022-08-31T08:38:54.016Z,24.48
2022-08-31T08:44:00.663Z,24.49
2022-08-31T08:49:13.079Z,24.51
2022-08-31T08:54:24.571Z,24.52
2022-08-31T08:59:28.627Z,24.52
2022-08-31T09:04:43.220Z,24.53
2022-08-31T09:10:26.249Z,24.55
2022-08-31T09:15:37.155Z,24.55
2022-08-31T09:20:43.379Z,24.54
2022-08-31T09:25:52.573Z,24.56
2022-08-31T09:31:37.384Z,24.57
2022-08-31T09:36:41.580Z,24.60
2022-08-31T09:41:45.998Z,24.62
2022-08-31T09:46:49.478Z,24.64
2022-08-31T09:51:52.298Z,24.65
2022-08-31T09:56:57.172Z,24.68
2022-08-31T10:02:00.056Z,24.71
2022-08-31T10:07:07.993Z,24.73
2022-08-31T10:12:14.845Z,24.74
2022-08-31T10:17:26.089Z,24.77
2022-08-31T10:22:32.424Z,24.78
2022-08-31T10:27:40.342Z,24.77
2022-08-31T10:32:46.010Z,24.76
2022-08-31T10:37:59.239Z,24.83
2022-08-31T10:43:10.178Z,24.86
2022-08-31T10:48:13.613Z,24.84
2022-08-31T10:53:34.956Z,24.87
2022-08-31T10:59:02.097Z,24.89
2022-08-31T11:04:29.738Z,24.92
2022-08-31T11:09:34.771Z,24.95
2022-08-31T11:15:03.153Z,24.96
2022-08-31T11:20:19.799Z,25.03
2022-08-31T11:25:52.394Z,25.06
2022-08-31T11:30:56.545Z,25.07
2022-08-31T11:36:07.323Z,25.10
2022-08-31T11:41:11.675Z,25.10
2022-08-31T11:46:43.479Z,25.14
2022-08-31T11:51:48.156Z,25.15
2022-08-31T11:56:51.029Z,25.16
2022-08-31T12:01:56.597Z,25.21
2022-08-31T12:07:00.759Z,25.27
2022-08-31T12:12:06.625Z,25.34
2022-08-31T12:17:13.571Z,25.33
2022-08-31T12:22:46.603Z,25.37
2022-08-31T12:27:55.298Z,25.38
2022-08-31T12:33:04.203Z,25.38
2022-08-31T12:38:08.309Z,25.41
2022-08-31T12:43:12.610Z,25.44
2022-08-31T12:48:25.022Z,25.49
2022-08-31T12:53:55.117Z,25.51
2022-08-31T12:59:04.683Z,25.51
2022-08-31T13:04:08.956Z,25.51
2022-08-31T13:09:24.850Z,25.51
2022-08-31T13:14:29.501Z,25.20
2022-08-31T13:19:34.579Z,25.19
2022-08-31T13:24:41.221Z,25.03
2022-08-31T13:29:45.387Z,25.01
2022-08-31T13:34:49.566Z,24.91
2022-08-31T13:39:52.938Z,24.86
2022-08-31T13:44:57.167Z,24.81
2022-08-31T13:50:07.192Z,24.74
2022-08-31T13:55:11.494Z,24.74
2022-08-31T14:00:35.700Z,24.74
2022-08-31T14:05:40.070Z,24.71
2022-08-31T14:10:47.853Z,24.79
2022-08-31T14:15:52.258Z,24.81
2022-08-31T14:21:22.801Z,24.72
2022-08-31T14:26:28.929Z,24.74
2022-08-31T14:31:33.867Z,24.68
2022-08-31T14:36:51.218Z,24.75
2022-08-31T14:41:54.607Z,24.70
2022-08-31T14:46:57.587Z,24.68
2022-08-31T14:52:04.673Z,24.74
2022-08-31T14:57:10.022Z,24.70
2022-08-31T15:02:20.356Z,24.70
2022-08-31T15:07:24.572Z,24.69
2022-08-31T15:12:30.451Z,24.64
2022-08-31T15:17:36.258Z,24.73
2022-08-31T15:22:40.979Z,24.72
2022-08-31T15:27:44.759Z,24.67
2022-08-31T15:32:48.183Z,24.67
2022-08-31T15:37:58.630Z,24.66
2022-08-31T15:43:01.865Z,24.65
2022-08-31T15:48:22.026Z,24.62
2022-08-31T15:53:27.342Z,24.56
2022-08-31T15:58:31.742Z,24.63
2022-08-31T16:03:35.467Z,24.66
2022-08-31T16:08:41.152Z,24.63
2022-08-31T16:13:50.971Z,24.53
2022-08-31T16:18:53.918Z,24.61
2022-08-31T16:24:01.001Z,24.70
2022-08-31T16:29:04.644Z,24.63
2022-08-31T16:34:07.548Z,24.74
2022-08-31T16:39:12.105Z,24.78
2022-08-31T16:44:19.956Z,24.85
2022-08-31T16:49:36.253Z,24.80
2022-08-31T16:54:42.622Z,24.88
2022-08-31T16:59:46.428Z,24.85
2022-08-31T17:04:52.436Z,24.89
2022-08-31T17:09:59.207Z,24.87
2022-08-31T17:15:03.599Z,24.84
2022-08-31T17:20:07.238Z,24.92
2022-08-31T17:25:13.057Z,24.88
2022-08-31T17:30:16.229Z,24.89
2022-08-31T17:35:19.375Z,25.00
2022-08-31T17:40:23.809Z,25.08
2022-08-31T17:45:27.560Z,25.03
2022-08-31T17:50:30.425Z,25.01
2022-08-31T17:55:34.418Z,24.97
2022-08-31T18:00:37.203Z,24.99
2022-08-31T18:05:43.829Z,25.00
2022-08-31T18:10:52.280Z,24.94
2022-08-31T18:15:56.173Z,24.98
2022-08-31T18:20:59.500Z,24.96
2022-08-31T18:26:03.765Z,24.94
2022-08-31T18:31:07.719Z,25.00
2022-08-31T18:36:11.996Z,25.04
2022-08-31T18:41:33.763Z,25.08
2022-08-31T18:46:36.621Z,25.11
2022-08-31T18:51:46.351Z,25.10
2022-08-31T18:56:50.645Z,25.07
2022-08-31T19:01:53.476Z,25.11
2022-08-31T19:06:58.119Z,25.12
2022-08-31T19:12:04.511Z,25.14
2022-08-31T19:17:08.242Z,25.18
2022-08-31T19:22:11.370Z,25.12
2022-08-31T19:27:15.697Z,25.14
2022-08-31T19:32:18.871Z,25.09
2022-08-31T19:37:22.272Z,25.12
2022-08-31T19:42:59.709Z,25.13
2022-08-31T19:47:51.107Z,25.21
2022-08-31T19:52:53.786Z,25.16
2022-08-31T19:57:57.947Z,25.15
2022-08-31T20:03:01.470Z,25.20
2022-08-31T20:08:04.222Z,25.17
2022-08-31T20:13:09.903Z,25.16
2022-08-31T20:18:12.966Z,25.08
2022-08-31T20:23:16.659Z,25.08
2022-08-31T20:28:26.292Z,25.11
2022-08-31T20:33:29.168Z,25.11
2022-08-31T20:38:39.433Z,25.09
2022-08-31T20:43:44.577Z,25.02
2022-08-31T20:49:04.846Z,24.98
2022-08-31T20:54:07.619Z,24.96
2022-08-31T20:59:11.785Z,24.96
2022-08-31T21:04:14.579Z,24.92
2022-08-31T21:09:17.297Z,24.92
2022-08-31T21:14:21.357Z,24.89
2022-08-31T21:19:24.369Z,24.81
2022-08-31T21:24:27.220Z,24.85
2022-08-31T21:29:31.239Z,24.81
2022-08-31T21:34:33.976Z,24.80
2022-08-31T21:39:37.886Z,24.78
2022-08-31T21:44:43.035Z,24.72
2022-08-31T21:49:47.956Z,24.81
2022-08-31T21:54:51.537Z,24.71
2022-08-31T21:59:55.629Z,24.67
2022-08-31T22:04:59.516Z,24.66
2022-08-31T22:10:02.697Z,24.65
2022-08-31T22:15:11.119Z,24.63
2022-08-31T22:20:17.479Z,24.58
2022-08-31T22:25:21.419Z,24.51
2022-08-31T22:30:26.513Z,24.48
2022-08-31T22:35:29.240Z,24.40
2022-08-31T22:40:32.069Z,24.35
2022-08-31T22:45:36.241Z,24.30
2022-08-31T22:50:39.038Z,24.28
2022-08-31T22:55:42.968Z,24.25
2022-08-31T23:00:47.927Z,24.17
2022-08-31T23:05:51.950Z,24.13
2022-08-31T23:10:54.613Z,24.05
2022-08-31T23:15:59.931Z,24.01
2022-08-31T23:21:03.750Z,23.98
2022-08-31T23:26:08.984Z,23.97
2022-08-31T23:31:13.026Z,23.87
2022-08-31T23:36:17.863Z,23.83
2022-08-31T23:41:25.755Z,23.75
2022-08-31T23:46:30.334Z,23.70
2022-08-31T23:51:33.306Z,23.48
2022-08-31T23:56:37.331Z,23.35
